Commodore Goodwill — C6NU8 — position and weather

sailwx.info

Track history (hours):
 
Tides and Currents Weather Stations Pressure Air Temp Water Temp Dewpoint Dewpoint Depression Visibility Wind Speed Wind Dir Waves Ship Positions

Commodore Goodwill

Operator: Condor Marine Services

Last reported at 2017-Nov-20 00:30 UTC. Time now 2017-Nov-23 00:22 UTC.
Position N 49°51' W 001°57'.

Length 126 m; draft 5.4 m.

Type: Ship (hazmat cat C). MMSI: 309536000.

Date/timePositionNaut miles runAvg speedWind from/ knotsBaromVisibWave heightAir tempDewpointWater temp
2017-Nov-20 00:30N 49°51' W 001°57'714.1
2017-Nov-20 00:00N 49°57' W 001°50'713.5
2017-Nov-19 23:31N 50°03' W 001°44'713.0
2017-Nov-19 23:00N 50°08' W 001°39'3112.9
2017-Nov-19 20:35N 50°33' W 001°10'114.0
2017-Nov-19 20:30N 50°34' W 001°09'714.0
2017-Nov-19 20:00N 50°40' W 001°04'713.6
2017-Nov-19 19:31N 50°47' W 001°06'2 3.7
2017-Nov-19 19:00N 50°49' W 001°06'0 0.0
2017-Nov-19 18:30N 50°49' W 001°06'0 0.0
2017-Nov-19 18:00N 50°49' W 001°06'0 0.0
2017-Nov-19 17:30N 50°49' W 001°06'0 0.0
2017-Nov-19 17:01N 50°49' W 001°06'0 0.0
2017-Nov-19 16:30N 50°49' W 001°06'0 0.0
2017-Nov-19 16:00N 50°49' W 001°06'0 0.0
2017-Nov-19 15:31N 50°49' W 001°06'0 0.0
2017-Nov-19 15:01N 50°49' W 001°06'0 0.0
2017-Nov-19 14:30N 50°49' W 001°06'0 0.0
2017-Nov-19 14:01N 50°49' W 001°06'0 0.0
2017-Nov-19 13:31N 50°49' W 001°06'0 0.0
2017-Nov-19 13:00N 50°49' W 001°06'0 0.0
2017-Nov-19 12:30N 50°49' W 001°06'0 0.0
2017-Nov-19 12:01N 50°49' W 001°06'0 0.0
2017-Nov-19 11:30N 50°49' W 001°06'0 0.0
2017-Nov-19 11:00N 50°49' W 001°06'0 0.0
2017-Nov-19 10:31N 50°49' W 001°06'0 0.0
2017-Nov-19 10:01N 50°49' W 001°06'0 0.0
2017-Nov-19 09:31N 50°49' W 001°06'0 0.0
2017-Nov-19 09:01N 50°49' W 001°06'0 0.0
2017-Nov-19 08:30N 50°49' W 001°06'0 0.0
2017-Nov-19 08:00N 50°49' W 001°06'0 0.0
2017-Nov-19 07:30N 50°49' W 001°06'0 0.5
2017-Nov-19 07:01N 50°49' W 001°06'510.3
2017-Nov-19 06:30N 50°44' W 001°03'713.3
2017-Nov-19 06:00N 50°37' W 001°05'612.6
2017-Nov-19 05:30N 50°32' W 001°09'2612.1
2017-Nov-19 03:22N 50°11' W 001°33'510.2
2017-Nov-19 02:51N 50°07' W 001°39'410.2
2017-Nov-19 02:30N 50°04' W 001°42'5 9.9
2017-Nov-19 02:00N 50°00' W 001°47'4 8.5
2017-Nov-19 01:30N 49°57' W 001°51'5 9.3
2017-Nov-19 01:00N 49°53' W 001°56'4 8.1
2017-Nov-19 00:30N 49°50' W 001°59'71 5.6
2017-Nov-18 11:40N 48°38' W 002°02'211.3
2017-Nov-18 11:28N 48°40' W 002°05'2612.8
2017-Nov-18 09:27N 49°06' W 002°01'42 4.8
2017-Nov-18 00:41N 49°47' W 002°01'315.6
2017-Nov-18 00:30N 49°50' W 001°58'815.3
2017-Nov-18 00:00N 49°55' W 001°49'713.1
2017-Nov-17 23:30N 50°01' W 001°46'714.6
2017-Nov-17 23:00N 50°07' W 001°39'2617.5
2017-Nov-17 21:31N 50°28' W 001°16'717.1
2017-Nov-17 21:08N 50°34' W 001°10'216.3
2017-Nov-17 21:00N 50°36' W 001°08'815.8
2017-Nov-17 20:31N 50°43' W 001°03'612.5
2017-Nov-17 20:00N 50°48' W 001°07'1 1.7
2017-Nov-17 19:31N 50°49' W 001°06'0 0.0
2017-Nov-17 19:01N 50°49' W 001°06'0 0.0
2017-Nov-17 18:31N 50°49' W 001°06'0 0.0
2017-Nov-17 18:01N 50°49' W 001°06'0 0.4
2017-Nov-17 17:31N 50°49' W 001°06'510.4
2017-Nov-17 17:00N 50°44' W 001°04'917.1
2017-Nov-17 16:30N 50°36' W 001°08'3617.2
2017-Nov-17 14:26N 50°06' W 001°40'615.6
2017-Nov-17 14:01N 50°00' W 001°45'815.0
2017-Nov-17 13:31N 49°55' W 001°52'714.7
2017-Nov-17 13:01N 49°49' W 001°59'713.3
2017-Nov-17 12:31N 49°43' W 002°04'1014.1
2017-Nov-17 11:49N 49°34' W 002°10'715.9
2017-Nov-17 11:24N 49°28' W 002°14'716.2
2017-Nov-17 10:58N 49°21' W 002°18'5 1.1
2017-Nov-17 06:00N 49°21' W 002°27'714.7
2017-Nov-17 05:30N 49°27' W 002°32'0 0.0
2017-Nov-17 05:00N 49°27' W 002°32'0 0.0
2017-Nov-17 04:30N 49°27' W 002°32'0 0.0
2017-Nov-17 04:00N 49°27' W 002°32'4 7.3
2017-Nov-17 03:30N 49°26' W 002°27'612.3
2017-Nov-17 03:01N 49°29' W 002°19'2216.3
2017-Nov-17 01:41N 49°47' W 002°00'317.5
2017-Nov-17 01:30N 49°50' W 001°57'917.5
2017-Nov-17 01:01N 49°57' W 001°49'917.8
2017-Nov-17 00:30N 50°04' W 001°42'3719.3
2017-Nov-16 22:37N 50°35' W 001°10'219.9
2017-Nov-16 22:31N 50°37' W 001°08'816.0
2017-Nov-16 22:01N 50°44' W 001°04'5 9.3
2017-Nov-16 21:31N 50°49' W 001°06'0 0.3
2017-Nov-16 21:01N 50°49' W 001°06'0 0.0
2017-Nov-16 20:31N 50°49' W 001°06'0 0.0
2017-Nov-16 20:01N 50°49' W 001°06'0 0.0
2017-Nov-16 19:31N 50°49' W 001°06'0 0.0
2017-Nov-16 19:01N 50°49' W 001°06'0 0.0
2017-Nov-16 18:31N 50°49' W 001°06'0 0.0
2017-Nov-16 18:00N 50°49' W 001°06'0 0.0
2017-Nov-16 17:31N 50°49' W 001°06'3 5.2
2017-Nov-16 17:00N 50°46' W 001°06'815.7
2017-Nov-16 16:30N 50°39' W 001°01'3617.8
2017-Nov-16 14:28N 50°09' W 001°34'816.5
2017-Nov-16 14:00N 50°03' W 001°40'816.1
2017-Nov-16 13:31N 49°57' W 001°47'815.6
2017-Nov-16 13:00N 49°51' W 001°56'814.9
2017-Nov-16 12:28N 49°44' W 002°02'1414.5
2017-Nov-16 11:32N 49°32' W 002°11'315.9
2017-Nov-16 11:19N 49°29' W 002°13'1516.2
2017-Nov-16 10:25N 49°15' W 002°21'8 1.6
2017-Nov-16 05:32N 49°22' W 002°27'117.3
2017-Nov-16 05:27N 49°23' W 002°28'511.0
2017-Nov-16 05:01N 49°27' W 002°32'0 0.0
2017-Nov-16 04:30N 49°27' W 002°32'0 0.0
2017-Nov-16 04:01N 49°27' W 002°32'0 0.1
2017-Nov-16 03:30N 49°27' W 002°32'5 9.3
2017-Nov-16 03:00N 49°27' W 002°25'2614.2
2017-Nov-16 01:12N 49°47' W 002°00'315.7
2017-Nov-16 01:00N 49°50' W 001°57'815.4
2017-Nov-16 00:30N 49°56' W 001°50'815.0
2017-Nov-16 00:00N 50°02' W 001°44'815.1
2017-Nov-15 23:30N 50°09' W 001°38'2817.2
2017-Nov-15 21:53N 50°32' W 001°14'719.0
2017-Nov-15 21:30N 50°38' W 001°07'714.5
2017-Nov-15 21:00N 50°45' W 001°05'4 7.8
2017-Nov-15 20:30N 50°49' W 001°06'0 0.0
2017-Nov-15 20:00N 50°49' W 001°06'0 0.0
2017-Nov-15 19:30N 50°49' W 001°06'0 0.0
2017-Nov-15 19:00N 50°49' W 001°06'0 0.0
2017-Nov-15 18:30N 50°49' W 001°06'0 0.0
2017-Nov-15 18:01N 50°49' W 001°06'0 0.0
2017-Nov-15 17:31N 50°49' W 001°06'0 0.0
2017-Nov-15 17:00N 50°49' W 001°06'2 4.1
2017-Nov-15 16:31N 50°47' W 001°06'715.0
2017-Nov-15 16:01N 50°40' W 001°01'3917.9
2017-Nov-15 13:51N 50°09' W 001°37'616.8
2017-Nov-15 13:30N 50°04' W 001°42'816.1
2017-Nov-15 13:00N 49°58' W 001°49'815.8
2017-Nov-15 12:30N 49°51' W 001°56'2714.9
2017-Nov-15 10:43N 49°27' W 002°13'515.8
2017-Nov-15 10:25N 49°23' W 002°17'915.7
2017-Nov-15 09:52N 49°15' W 002°21'5 1.2
2017-Nov-15 05:19N 49°19' W 002°25'516.7
2017-Nov-15 05:01N 49°24' W 002°28'4 8.4
2017-Nov-15 04:30N 49°27' W 002°32'0 0.0
2017-Nov-15 04:00N 49°27' W 002°32'0 0.0
2017-Nov-15 03:30N 49°27' W 002°32'4 7.9
2017-Nov-15 03:00N 49°26' W 002°26'815.1
2017-Nov-15 02:30N 49°31' W 002°16'1815.7
2017-Nov-15 01:21N 49°46' W 002°01'617.0
2017-Nov-15 01:00N 49°51' W 001°56'815.3
2017-Nov-15 00:31N 49°57' W 001°49'815.2
2017-Nov-15 00:00N 50°04' W 001°43'815.7
2017-Nov-14 23:30N 50°10' W 001°37'3115.8
2017-Nov-14 21:34N 50°35' W 001°09'116.5
2017-Nov-14 21:30N 50°36' W 001°08'714.8
2017-Nov-14 21:00N 50°43' W 001°04'611.6
2017-Nov-14 20:30N 50°49' W 001°07'1 1.4
2017-Nov-14 20:00N 50°49' W 001°06'0 0.0
2017-Nov-14 19:30N 50°49' W 001°06'0 0.0
2017-Nov-14 19:00N 50°49' W 001°06'0 0.0
2017-Nov-14 18:31N 50°49' W 001°06'0 0.0
2017-Nov-14 18:00N 50°49' W 001°06'0 0.0
2017-Nov-14 17:31N 50°49' W 001°06'0 0.0
2017-Nov-14 17:00N 50°49' W 001°06'0 0.0
2017-Nov-14 16:30N 50°49' W 001°06'2 4.1
2017-Nov-14 16:00N 50°47' W 001°06'714.6
2017-Nov-14 15:30N 50°39' W 001°05'4117.8
2017-Nov-14 13:13N 50°05' W 001°40'416.7
2017-Nov-14 13:00N 50°02' W 001°43'816.4
2017-Nov-14 12:31N 49°56' W 001°51'816.3
2017-Nov-14 12:00N 49°49' W 001°58'1514.9
2017-Nov-14 11:01N 49°36' W 002°07'0 1.0
2017-Nov-14 11:00N 49°36' W 002°07'815.6
2017-Nov-14 10:30N 49°31' W 002°16'815.7
2017-Nov-14 10:00N 49°26' W 002°26'4 7.7
2017-Nov-14 09:31N 49°27' W 002°32'0 0.0
2017-Nov-14 09:00N 49°27' W 002°32'0 0.0
2017-Nov-14 08:30N 49°27' W 002°32'0 0.0
2017-Nov-14 08:01N 49°27' W 002°32'2 3.3
2017-Nov-14 07:30N 49°26' W 002°30'9 1.7
2017-Nov-14 02:04N 49°21' W 002°18'114.5
2017-Nov-14 02:00N 49°22' W 002°18'98 4.1
2017-Nov-13 02:01N 50°49' W 001°06'0 0.0
2017-Nov-13 01:31N 50°49' W 001°06'0 0.0
2017-Nov-13 01:01N 50°49' W 001°06'0 0.0
2017-Nov-13 00:31N 50°49' W 001°06'0 0.0
2017-Nov-13 00:01N 50°49' W 001°06'0 0.0
2017-Nov-12 23:30N 50°49' W 001°06'0 0.0
2017-Nov-12 23:01N 50°49' W 001°06'0 0.0
2017-Nov-12 22:30N 50°49' W 001°06'0 0.0
2017-Nov-12 22:01N 50°49' W 001°06'0 0.0
2017-Nov-12 21:30N 50°49' W 001°06'0 0.0
2017-Nov-12 21:01N 50°49' W 001°06'0 0.0
2017-Nov-12 20:31N 50°49' W 001°06'0 0.0
2017-Nov-12 20:01N 50°49' W 001°06'0 0.0
2017-Nov-12 19:30N 50°49' W 001°06'0 0.0
2017-Nov-12 19:00N 50°49' W 001°06'0 0.0
2017-Nov-12 18:30N 50°49' W 001°06'0 0.0
2017-Nov-12 18:01N 50°49' W 001°06'0 0.0
2017-Nov-12 17:31N 50°49' W 001°06'0 0.0
2017-Nov-12 17:01N 50°49' W 001°06'0 0.0
2017-Nov-12 16:31N 50°49' W 001°06'0 0.0
2017-Nov-12 16:01N 50°49' W 001°06'0 0.0
2017-Nov-12 15:30N 50°49' W 001°06'0 0.0
2017-Nov-12 15:01N 50°49' W 001°06'0 0.0
2017-Nov-12 14:30N 50°49' W 001°06'0 0.0
2017-Nov-12 14:01N 50°49' W 001°06'0 0.0
2017-Nov-12 13:31N 50°49' W 001°06'0 0.0
2017-Nov-12 13:01N 50°49' W 001°06'0 0.0
2017-Nov-12 12:30N 50°49' W 001°06'0 0.0
2017-Nov-12 12:01N 50°49' W 001°06'0 0.0
2017-Nov-12 11:30N 50°49' W 001°06'0 0.0
2017-Nov-12 11:01N 50°49' W 001°06'0 0.0
2017-Nov-12 10:31N 50°49' W 001°06'0 0.0
2017-Nov-12 10:01N 50°49' W 001°06'0 0.0
2017-Nov-12 09:31N 50°49' W 001°06'0 0.0
2017-Nov-12 09:01N 50°49' W 001°06'0 0.0
2017-Nov-12 08:31N 50°49' W 001°06'0 0.0
2017-Nov-12 08:01N 50°49' W 001°06'0 0.0
2017-Nov-12 07:30N 50°49' W 001°06'0 0.0
2017-Nov-12 07:00N 50°49' W 001°06'0 0.0
2017-Nov-12 06:31N 50°49' W 001°06'0 0.0
2017-Nov-12 06:00N 50°49' W 001°06'0 0.0
2017-Nov-12 05:30N 50°49' W 001°06'0 0.0
2017-Nov-12 05:00N 50°49' W 001°06'0 0.0
2017-Nov-12 04:30N 50°49' W 001°06'0 0.0
2017-Nov-12 04:00N 50°49' W 001°06'0 0.0
2017-Nov-12 03:30N 50°49' W 001°06'0 0.0
2017-Nov-12 03:00N 50°49' W 001°06'0 0.0
2017-Nov-12 02:30N 50°49' W 001°06'0 0.0
2017-Nov-12 02:00N 50°49' W 001°06'0 0.0
2017-Nov-12 01:30N 50°49' W 001°06'0 0.0
2017-Nov-12 01:00N 50°49' W 001°06'0 0.0
2017-Nov-12 00:30N 50°49' W 001°06'0 0.0
2017-Nov-12 00:00N 50°49' W 001°06'0 0.0
2017-Nov-11 23:30N 50°49' W 001°06'0 0.0
2017-Nov-11 23:00N 50°49' W 001°06'0 0.0
2017-Nov-11 22:30N 50°49' W 001°06'0 0.0
2017-Nov-11 22:00N 50°49' W 001°06'0 0.0
2017-Nov-11 21:30N 50°49' W 001°06'0 0.0
2017-Nov-11 21:00N 50°49' W 001°06'0 0.0
2017-Nov-11 20:30N 50°49' W 001°06'0 0.0
2017-Nov-11 20:00N 50°49' W 001°06'0 0.0
2017-Nov-11 19:30N 50°49' W 001°06'0 0.0
2017-Nov-11 19:00N 50°49' W 001°06'0 0.0
2017-Nov-11 18:30N 50°49' W 001°06'0 0.0
2017-Nov-11 18:00N 50°49' W 001°06'0 0.0
2017-Nov-11 17:30N 50°49' W 001°06'0 0.0
2017-Nov-11 17:00N 50°49' W 001°06'0 0.0
2017-Nov-11 16:30N 50°49' W 001°06'0 0.0
2017-Nov-11 16:00N 50°49' W 001°06'0 0.0
2017-Nov-11 15:30N 50°49' W 001°06'0 0.0
2017-Nov-11 15:00N 50°49' W 001°06'0 0.0
2017-Nov-11 14:30N 50°49' W 001°06'0 0.0
2017-Nov-11 14:00N 50°49' W 001°06'0 0.0
2017-Nov-11 13:30N 50°49' W 001°06'0 0.0
2017-Nov-11 13:00N 50°49' W 001°06'0 0.0
2017-Nov-11 12:30N 50°49' W 001°06'0 0.0
2017-Nov-11 12:00N 50°49' W 001°06'0 0.0
2017-Nov-11 11:30N 50°49' W 001°06'0 0.0
2017-Nov-11 11:00N 50°49' W 001°06'0 0.0
2017-Nov-11 10:30N 50°49' W 001°06'0 0.0
2017-Nov-11 10:00N 50°49' W 001°06'0 0.0
2017-Nov-11 09:30N 50°49' W 001°06'0 0.0
2017-Nov-11 09:00N 50°49' W 001°06'0 0.0
2017-Nov-11 08:30N 50°49' W 001°06'0 0.0
2017-Nov-11 08:01N 50°49' W 001°06'0 0.0
2017-Nov-11 07:30N 50°49' W 001°06'0 0.0
2017-Nov-11 07:00N 50°49' W 001°06'0 0.0
2017-Nov-11 06:30N 50°49' W 001°06'0 0.0
2017-Nov-11 06:00N 50°49' W 001°06'0 0.0
2017-Nov-11 05:30N 50°49' W 001°06'0 0.0
2017-Nov-11 05:00N 50°49' W 001°06'0 0.0
2017-Nov-11 04:30N 50°49' W 001°06'0 0.0
2017-Nov-11 04:00N 50°49' W 001°06'0 0.0
2017-Nov-11 03:30N 50°49' W 001°06'0 0.0
2017-Nov-11 03:00N 50°49' W 001°06'0 0.0
2017-Nov-11 02:30N 50°49' W 001°06'0 0.0
2017-Nov-11 02:00N 50°49' W 001°06'0 0.0
2017-Nov-11 01:30N 50°49' W 001°06'0 0.0
2017-Nov-11 01:00N 50°49' W 001°06'0 0.0
2017-Nov-11 00:30N 50°49' W 001°06'0 0.0
2017-Nov-11 00:00N 50°49' W 001°06'0 0.0
2017-Nov-10 23:30N 50°49' W 001°06'0 0.0
2017-Nov-10 23:00N 50°49' W 001°06'0 0.0
2017-Nov-10 22:30N 50°49' W 001°06'0 0.0
2017-Nov-10 22:00N 50°49' W 001°06'0 0.0
2017-Nov-10 21:30N 50°49' W 001°06'0 0.0
2017-Nov-10 21:00N 50°49' W 001°06'0 0.0
2017-Nov-10 20:30N 50°49' W 001°06'0 0.0
2017-Nov-10 20:00N 50°49' W 001°06'0 0.0
2017-Nov-10 19:30N 50°49' W 001°06'0 0.0
2017-Nov-10 19:00N 50°49' W 001°06'0 0.0
2017-Nov-10 18:30N 50°49' W 001°06'0 0.0
2017-Nov-10 18:00N 50°49' W 001°06'0 0.0
2017-Nov-10 17:30N 50°49' W 001°06'0 0.0
2017-Nov-10 17:00N 50°49' W 001°06'1 2.1
2017-Nov-10 16:30N 50°48' W 001°07'612.4
2017-Nov-10 16:01N 50°42' W 001°03'815.9
2017-Nov-10 15:30N 50°35' W 001°09'3118.1
2017-Nov-10 13:47N 50°10' W 001°37'918.6
2017-Nov-10 13:19N 50°03' W 001°44'618.7
2017-Nov-10 13:00N 49°57' W 001°49'1019.4
2017-Nov-10 12:31N 49°49' W 001°56'1421.0
2017-Nov-10 11:49N 49°36' W 002°07'1219.7
2017-Nov-10 11:13N 49°25' W 002°14'519.1
2017-Nov-10 10:58N 49°22' W 002°19'1211.6
2017-Nov-10 09:55N 49°10' W 002°18'38 4.8
2017-Nov-10 01:54N 49°46' W 001°59'615.3
2017-Nov-10 01:30N 49°51' W 001°53'815.5
2017-Nov-10 01:00N 49°58' W 001°46'815.4
2017-Nov-10 00:30N 50°04' W 001°39'  
Track history (hours):
 
Tides and Currents Weather Stations Pressure Air Temp Water Temp Dewpoint Dewpoint Depression Visibility Wind Speed Wind Dir Waves Ship Positions

Commodore Goodwill

Operator: Condor Marine Services

Last reported at 2017-Nov-20 00:30 UTC. Time now 2017-Nov-23 00:22 UTC.
Position N 49°51' W 001°57'.

Length 126 m; draft 5.4 m.

Type: Ship (hazmat cat C). MMSI: 309536000.

Date/timePositionNaut miles runAvg speedWind from/ knotsBaromVisibWave heightAir tempDewpointWater temp
2017-Nov-20 00:30N 49°51' W 001°57'714.1
2017-Nov-20 00:00N 49°57' W 001°50'713.5
2017-Nov-19 23:31N 50°03' W 001°44'713.0
2017-Nov-19 23:00N 50°08' W 001°39'3112.9
2017-Nov-19 20:35N 50°33' W 001°10'114.0
2017-Nov-19 20:30N 50°34' W 001°09'714.0
2017-Nov-19 20:00N 50°40' W 001°04'713.6
2017-Nov-19 19:31N 50°47' W 001°06'2 3.7
2017-Nov-19 19:00N 50°49' W 001°06'0 0.0
2017-Nov-19 18:30N 50°49' W 001°06'0 0.0
2017-Nov-19 18:00N 50°49' W 001°06'0 0.0
2017-Nov-19 17:30N 50°49' W 001°06'0 0.0
2017-Nov-19 17:01N 50°49' W 001°06'0 0.0
2017-Nov-19 16:30N 50°49' W 001°06'0 0.0
2017-Nov-19 16:00N 50°49' W 001°06'0 0.0
2017-Nov-19 15:31N 50°49' W 001°06'0 0.0
2017-Nov-19 15:01N 50°49' W 001°06'0 0.0
2017-Nov-19 14:30N 50°49' W 001°06'0 0.0
2017-Nov-19 14:01N 50°49' W 001°06'0 0.0
2017-Nov-19 13:31N 50°49' W 001°06'0 0.0
2017-Nov-19 13:00N 50°49' W 001°06'0 0.0
2017-Nov-19 12:30N 50°49' W 001°06'0 0.0
2017-Nov-19 12:01N 50°49' W 001°06'0 0.0
2017-Nov-19 11:30N 50°49' W 001°06'0 0.0
2017-Nov-19 11:00N 50°49' W 001°06'0 0.0
2017-Nov-19 10:31N 50°49' W 001°06'0 0.0
2017-Nov-19 10:01N 50°49' W 001°06'0 0.0
2017-Nov-19 09:31N 50°49' W 001°06'0 0.0
2017-Nov-19 09:01N 50°49' W 001°06'0 0.0
2017-Nov-19 08:30N 50°49' W 001°06'0 0.0
2017-Nov-19 08:00N 50°49' W 001°06'0 0.0
2017-Nov-19 07:30N 50°49' W 001°06'0 0.5
2017-Nov-19 07:01N 50°49' W 001°06'510.3
2017-Nov-19 06:30N 50°44' W 001°03'713.3
2017-Nov-19 06:00N 50°37' W 001°05'612.6
2017-Nov-19 05:30N 50°32' W 001°09'2612.1
2017-Nov-19 03:22N 50°11' W 001°33'510.2
2017-Nov-19 02:51N 50°07' W 001°39'410.2
2017-Nov-19 02:30N 50°04' W 001°42'5 9.9
2017-Nov-19 02:00N 50°00' W 001°47'4 8.5
2017-Nov-19 01:30N 49°57' W 001°51'5 9.3
2017-Nov-19 01:00N 49°53' W 001°56'4 8.1
2017-Nov-19 00:30N 49°50' W 001°59'71 5.6
2017-Nov-18 11:40N 48°38' W 002°02'211.3
2017-Nov-18 11:28N 48°40' W 002°05'2612.8
2017-Nov-18 09:27N 49°06' W 002°01'42 4.8
2017-Nov-18 00:41N 49°47' W 002°01'315.6
2017-Nov-18 00:30N 49°50' W 001°58'815.3
2017-Nov-18 00:00N 49°55' W 001°49'713.1
2017-Nov-17 23:30N 50°01' W 001°46'714.6
2017-Nov-17 23:00N 50°07' W 001°39'2617.5
2017-Nov-17 21:31N 50°28' W 001°16'717.1
2017-Nov-17 21:08N 50°34' W 001°10'216.3
2017-Nov-17 21:00N 50°36' W 001°08'815.8
2017-Nov-17 20:31N 50°43' W 001°03'612.5
2017-Nov-17 20:00N 50°48' W 001°07'1 1.7
2017-Nov-17 19:31N 50°49' W 001°06'0 0.0
2017-Nov-17 19:01N 50°49' W 001°06'0 0.0
2017-Nov-17 18:31N 50°49' W 001°06'0 0.0
2017-Nov-17 18:01N 50°49' W 001°06'0 0.4
2017-Nov-17 17:31N 50°49' W 001°06'510.4
2017-Nov-17 17:00N 50°44' W 001°04'917.1
2017-Nov-17 16:30N 50°36' W 001°08'3617.2
2017-Nov-17 14:26N 50°06' W 001°40'615.6
2017-Nov-17 14:01N 50°00' W 001°45'815.0
2017-Nov-17 13:31N 49°55' W 001°52'714.7
2017-Nov-17 13:01N 49°49' W 001°59'713.3
2017-Nov-17 12:31N 49°43' W 002°04'1014.1
2017-Nov-17 11:49N 49°34' W 002°10'715.9
2017-Nov-17 11:24N 49°28' W 002°14'716.2
2017-Nov-17 10:58N 49°21' W 002°18'5 1.1
2017-Nov-17 06:00N 49°21' W 002°27'714.7
2017-Nov-17 05:30N 49°27' W 002°32'0 0.0
2017-Nov-17 05:00N 49°27' W 002°32'0 0.0
2017-Nov-17 04:30N 49°27' W 002°32'0 0.0
2017-Nov-17 04:00N 49°27' W 002°32'4 7.3
2017-Nov-17 03:30N 49°26' W 002°27'612.3
2017-Nov-17 03:01N 49°29' W 002°19'2216.3
2017-Nov-17 01:41N 49°47' W 002°00'317.5
2017-Nov-17 01:30N 49°50' W 001°57'917.5
2017-Nov-17 01:01N 49°57' W 001°49'917.8
2017-Nov-17 00:30N 50°04' W 001°42'3719.3
2017-Nov-16 22:37N 50°35' W 001°10'219.9
2017-Nov-16 22:31N 50°37' W 001°08'816.0
2017-Nov-16 22:01N 50°44' W 001°04'5 9.3
2017-Nov-16 21:31N 50°49' W 001°06'0 0.3
2017-Nov-16 21:01N 50°49' W 001°06'0 0.0
2017-Nov-16 20:31N 50°49' W 001°06'0 0.0
2017-Nov-16 20:01N 50°49' W 001°06'0 0.0
2017-Nov-16 19:31N 50°49' W 001°06'0 0.0
2017-Nov-16 19:01N 50°49' W 001°06'0 0.0
2017-Nov-16 18:31N 50°49' W 001°06'0 0.0
2017-Nov-16 18:00N 50°49' W 001°06'0 0.0
2017-Nov-16 17:31N 50°49' W 001°06'3 5.2
2017-Nov-16 17:00N 50°46' W 001°06'815.7
2017-Nov-16 16:30N 50°39' W 001°01'3617.8
2017-Nov-16 14:28N 50°09' W 001°34'816.5
2017-Nov-16 14:00N 50°03' W 001°40'816.1
2017-Nov-16 13:31N 49°57' W 001°47'815.6
2017-Nov-16 13:00N 49°51' W 001°56'814.9
2017-Nov-16 12:28N 49°44' W 002°02'1414.5
2017-Nov-16 11:32N 49°32' W 002°11'315.9
2017-Nov-16 11:19N 49°29' W 002°13'1516.2
2017-Nov-16 10:25N 49°15' W 002°21'8 1.6
2017-Nov-16 05:32N 49°22' W 002°27'117.3
2017-Nov-16 05:27N 49°23' W 002°28'511.0
2017-Nov-16 05:01N 49°27' W 002°32'0 0.0
2017-Nov-16 04:30N 49°27' W 002°32'0 0.0
2017-Nov-16 04:01N 49°27' W 002°32'0 0.1
2017-Nov-16 03:30N 49°27' W 002°32'5 9.3
2017-Nov-16 03:00N 49°27' W 002°25'2614.2
2017-Nov-16 01:12N 49°47' W 002°00'315.7
2017-Nov-16 01:00N 49°50' W 001°57'815.4
2017-Nov-16 00:30N 49°56' W 001°50'815.0
2017-Nov-16 00:00N 50°02' W 001°44'815.1
2017-Nov-15 23:30N 50°09' W 001°38'2817.2
2017-Nov-15 21:53N 50°32' W 001°14'719.0
2017-Nov-15 21:30N 50°38' W 001°07'714.5
2017-Nov-15 21:00N 50°45' W 001°05'4 7.8
2017-Nov-15 20:30N 50°49' W 001°06'0 0.0
2017-Nov-15 20:00N 50°49' W 001°06'0 0.0
2017-Nov-15 19:30N 50°49' W 001°06'0 0.0
2017-Nov-15 19:00N 50°49' W 001°06'0 0.0
2017-Nov-15 18:30N 50°49' W 001°06'0 0.0
2017-Nov-15 18:01N 50°49' W 001°06'0 0.0
2017-Nov-15 17:31N 50°49' W 001°06'0 0.0
2017-Nov-15 17:00N 50°49' W 001°06'2 4.1
2017-Nov-15 16:31N 50°47' W 001°06'715.0
2017-Nov-15 16:01N 50°40' W 001°01'3917.9
2017-Nov-15 13:51N 50°09' W 001°37'616.8
2017-Nov-15 13:30N 50°04' W 001°42'816.1
2017-Nov-15 13:00N 49°58' W 001°49'815.8
2017-Nov-15 12:30N 49°51' W 001°56'2714.9
2017-Nov-15 10:43N 49°27' W 002°13'515.8
2017-Nov-15 10:25N 49°23' W 002°17'915.7
2017-Nov-15 09:52N 49°15' W 002°21'5 1.2
2017-Nov-15 05:19N 49°19' W 002°25'516.7
2017-Nov-15 05:01N 49°24' W 002°28'4 8.4
2017-Nov-15 04:30N 49°27' W 002°32'0 0.0
2017-Nov-15 04:00N 49°27' W 002°32'0 0.0
2017-Nov-15 03:30N 49°27' W 002°32'4 7.9
2017-Nov-15 03:00N 49°26' W 002°26'815.1
2017-Nov-15 02:30N 49°31' W 002°16'1815.7
2017-Nov-15 01:21N 49°46' W 002°01'617.0
2017-Nov-15 01:00N 49°51' W 001°56'815.3
2017-Nov-15 00:31N 49°57' W 001°49'815.2
2017-Nov-15 00:00N 50°04' W 001°43'815.7
2017-Nov-14 23:30N 50°10' W 001°37'3115.8
2017-Nov-14 21:34N 50°35' W 001°09'116.5
2017-Nov-14 21:30N 50°36' W 001°08'714.8
2017-Nov-14 21:00N 50°43' W 001°04'611.6
2017-Nov-14 20:30N 50°49' W 001°07'1 1.4
2017-Nov-14 20:00N 50°49' W 001°06'0 0.0
2017-Nov-14 19:30N 50°49' W 001°06'0 0.0
2017-Nov-14 19:00N 50°49' W 001°06'0 0.0
2017-Nov-14 18:31N 50°49' W 001°06'0 0.0
2017-Nov-14 18:00N 50°49' W 001°06'0 0.0
2017-Nov-14 17:31N 50°49' W 001°06'0 0.0
2017-Nov-14 17:00N 50°49' W 001°06'0 0.0
2017-Nov-14 16:30N 50°49' W 001°06'2 4.1
2017-Nov-14 16:00N 50°47' W 001°06'714.6
2017-Nov-14 15:30N 50°39' W 001°05'4117.8
2017-Nov-14 13:13N 50°05' W 001°40'416.7
2017-Nov-14 13:00N 50°02' W 001°43'816.4
2017-Nov-14 12:31N 49°56' W 001°51'816.3
2017-Nov-14 12:00N 49°49' W 001°58'1514.9
2017-Nov-14 11:01N 49°36' W 002°07'0 1.0
2017-Nov-14 11:00N 49°36' W 002°07'815.6
2017-Nov-14 10:30N 49°31' W 002°16'815.7
2017-Nov-14 10:00N 49°26' W 002°26'4 7.7
2017-Nov-14 09:31N 49°27' W 002°32'0 0.0
2017-Nov-14 09:00N 49°27' W 002°32'0 0.0
2017-Nov-14 08:30N 49°27' W 002°32'0 0.0
2017-Nov-14 08:01N 49°27' W 002°32'2 3.3
2017-Nov-14 07:30N 49°26' W 002°30'9 1.7
2017-Nov-14 02:04N 49°21' W 002°18'114.5
2017-Nov-14 02:00N 49°22' W 002°18'98 4.1
2017-Nov-13 02:01N 50°49' W 001°06'0 0.0
2017-Nov-13 01:31N 50°49' W 001°06'0 0.0
2017-Nov-13 01:01N 50°49' W 001°06'0 0.0
2017-Nov-13 00:31N 50°49' W 001°06'0 0.0
2017-Nov-13 00:01N 50°49' W 001°06'0 0.0
2017-Nov-12 23:30N 50°49' W 001°06'0 0.0
2017-Nov-12 23:01N 50°49' W 001°06'0 0.0
2017-Nov-12 22:30N 50°49' W 001°06'0 0.0
2017-Nov-12 22:01N 50°49' W 001°06'0 0.0
2017-Nov-12 21:30N 50°49' W 001°06'0 0.0
2017-Nov-12 21:01N 50°49' W 001°06'0 0.0
2017-Nov-12 20:31N 50°49' W 001°06'0 0.0
2017-Nov-12 20:01N 50°49' W 001°06'0 0.0
2017-Nov-12 19:30N 50°49' W 001°06'0 0.0
2017-Nov-12 19:00N 50°49' W 001°06'0 0.0
2017-Nov-12 18:30N 50°49' W 001°06'0 0.0
2017-Nov-12 18:01N 50°49' W 001°06'0 0.0
2017-Nov-12 17:31N 50°49' W 001°06'0 0.0
2017-Nov-12 17:01N 50°49' W 001°06'0 0.0
2017-Nov-12 16:31N 50°49' W 001°06'0 0.0
2017-Nov-12 16:01N 50°49' W 001°06'0 0.0
2017-Nov-12 15:30N 50°49' W 001°06'0 0.0
2017-Nov-12 15:01N 50°49' W 001°06'0 0.0
2017-Nov-12 14:30N 50°49' W 001°06'0 0.0
2017-Nov-12 14:01N 50°49' W 001°06'0 0.0
2017-Nov-12 13:31N 50°49' W 001°06'0 0.0
2017-Nov-12 13:01N 50°49' W 001°06'0 0.0
2017-Nov-12 12:30N 50°49' W 001°06'0 0.0
2017-Nov-12 12:01N 50°49' W 001°06'0 0.0
2017-Nov-12 11:30N 50°49' W 001°06'0 0.0
2017-Nov-12 11:01N 50°49' W 001°06'0 0.0
2017-Nov-12 10:31N 50°49' W 001°06'0 0.0
2017-Nov-12 10:01N 50°49' W 001°06'0 0.0
2017-Nov-12 09:31N 50°49' W 001°06'0 0.0
2017-Nov-12 09:01N 50°49' W 001°06'0 0.0
2017-Nov-12 08:31N 50°49' W 001°06'0 0.0
2017-Nov-12 08:01N 50°49' W 001°06'0 0.0
2017-Nov-12 07:30N 50°49' W 001°06'0 0.0
2017-Nov-12 07:00N 50°49' W 001°06'0 0.0
2017-Nov-12 06:31N 50°49' W 001°06'0 0.0
2017-Nov-12 06:00N 50°49' W 001°06'0 0.0
2017-Nov-12 05:30N 50°49' W 001°06'0 0.0
2017-Nov-12 05:00N 50°49' W 001°06'0 0.0
2017-Nov-12 04:30N 50°49' W 001°06'0 0.0
2017-Nov-12 04:00N 50°49' W 001°06'0 0.0
2017-Nov-12 03:30N 50°49' W 001°06'0 0.0
2017-Nov-12 03:00N 50°49' W 001°06'0 0.0
2017-Nov-12 02:30N 50°49' W 001°06'0 0.0
2017-Nov-12 02:00N 50°49' W 001°06'0 0.0
2017-Nov-12 01:30N 50°49' W 001°06'0 0.0
2017-Nov-12 01:00N 50°49' W 001°06'0 0.0
2017-Nov-12 00:30N 50°49' W 001°06'0 0.0
2017-Nov-12 00:00N 50°49' W 001°06'0 0.0
2017-Nov-11 23:30N 50°49' W 001°06'0 0.0
2017-Nov-11 23:00N 50°49' W 001°06'0 0.0
2017-Nov-11 22:30N 50°49' W 001°06'0 0.0
2017-Nov-11 22:00N 50°49' W 001°06'0 0.0
2017-Nov-11 21:30N 50°49' W 001°06'0 0.0
2017-Nov-11 21:00N 50°49' W 001°06'0 0.0
2017-Nov-11 20:30N 50°49' W 001°06'0 0.0
2017-Nov-11 20:00N 50°49' W 001°06'0 0.0
2017-Nov-11 19:30N 50°49' W 001°06'0 0.0
2017-Nov-11 19:00N 50°49' W 001°06'0 0.0
2017-Nov-11 18:30N 50°49' W 001°06'0 0.0
2017-Nov-11 18:00N 50°49' W 001°06'0 0.0
2017-Nov-11 17:30N 50°49' W 001°06'0 0.0
2017-Nov-11 17:00N 50°49' W 001°06'0 0.0
2017-Nov-11 16:30N 50°49' W 001°06'0 0.0
2017-Nov-11 16:00N 50°49' W 001°06'0 0.0
2017-Nov-11 15:30N 50°49' W 001°06'0 0.0
2017-Nov-11 15:00N 50°49' W 001°06'0 0.0
2017-Nov-11 14:30N 50°49' W 001°06'0 0.0
2017-Nov-11 14:00N 50°49' W 001°06'0 0.0
2017-Nov-11 13:30N 50°49' W 001°06'0 0.0
2017-Nov-11 13:00N 50°49' W 001°06'0 0.0
2017-Nov-11 12:30N 50°49' W 001°06'0 0.0
2017-Nov-11 12:00N 50°49' W 001°06'0 0.0
2017-Nov-11 11:30N 50°49' W 001°06'0 0.0
2017-Nov-11 11:00N 50°49' W 001°06'0 0.0
2017-Nov-11 10:30N 50°49' W 001°06'0 0.0
2017-Nov-11 10:00N 50°49' W 001°06'0 0.0
2017-Nov-11 09:30N 50°49' W 001°06'0 0.0
2017-Nov-11 09:00N 50°49' W 001°06'0 0.0
2017-Nov-11 08:30N 50°49' W 001°06'0 0.0
2017-Nov-11 08:01N 50°49' W 001°06'0 0.0
2017-Nov-11 07:30N 50°49' W 001°06'0 0.0
2017-Nov-11 07:00N 50°49' W 001°06'0 0.0
2017-Nov-11 06:30N 50°49' W 001°06'0 0.0
2017-Nov-11 06:00N 50°49' W 001°06'0 0.0
2017-Nov-11 05:30N 50°49' W 001°06'0 0.0
2017-Nov-11 05:00N 50°49' W 001°06'0 0.0
2017-Nov-11 04:30N 50°49' W 001°06'0 0.0
2017-Nov-11 04:00N 50°49' W 001°06'0 0.0
2017-Nov-11 03:30N 50°49' W 001°06'0 0.0
2017-Nov-11 03:00N 50°49' W 001°06'0 0.0
2017-Nov-11 02:30N 50°49' W 001°06'0 0.0
2017-Nov-11 02:00N 50°49' W 001°06'0 0.0
2017-Nov-11 01:30N 50°49' W 001°06'0 0.0
2017-Nov-11 01:00N 50°49' W 001°06'0 0.0
2017-Nov-11 00:30N 50°49' W 001°06'0 0.0
2017-Nov-11 00:00N 50°49' W 001°06'0 0.0
2017-Nov-10 23:30N 50°49' W 001°06'0 0.0
2017-Nov-10 23:00N 50°49' W 001°06'0 0.0
2017-Nov-10 22:30N 50°49' W 001°06'0 0.0
2017-Nov-10 22:00N 50°49' W 001°06'0 0.0
2017-Nov-10 21:30N 50°49' W 001°06'0 0.0
2017-Nov-10 21:00N 50°49' W 001°06'0 0.0
2017-Nov-10 20:30N 50°49' W 001°06'0 0.0
2017-Nov-10 20:00N 50°49' W 001°06'0 0.0
2017-Nov-10 19:30N 50°49' W 001°06'0 0.0
2017-Nov-10 19:00N 50°49' W 001°06'0 0.0
2017-Nov-10 18:30N 50°49' W 001°06'0 0.0
2017-Nov-10 18:00N 50°49' W 001°06'0 0.0
2017-Nov-10 17:30N 50°49' W 001°06'0 0.0
2017-Nov-10 17:00N 50°49' W 001°06'1 2.1
2017-Nov-10 16:30N 50°48' W 001°07'612.4
2017-Nov-10 16:01N 50°42' W 001°03'815.9
2017-Nov-10 15:30N 50°35' W 001°09'3118.1
2017-Nov-10 13:47N 50°10' W 001°37'918.6
2017-Nov-10 13:19N 50°03' W 001°44'618.7
2017-Nov-10 13:00N 49°57' W 001°49'1019.4
2017-Nov-10 12:31N 49°49' W 001°56'1421.0
2017-Nov-10 11:49N 49°36' W 002°07'1219.7
2017-Nov-10 11:13N 49°25' W 002°14'519.1
2017-Nov-10 10:58N 49°22' W 002°19'1211.6
2017-Nov-10 09:55N 49°10' W 002°18'38 4.8
2017-Nov-10 01:54N 49°46' W 001°59'615.3
2017-Nov-10 01:30N 49°51' W 001°53'815.5
2017-Nov-10 01:00N 49°58' W 001°46'815.4
2017-Nov-10 00:30N 50°04' W 001°39'  

Dump ship's entire track history